createdAt,value
2019-05-23T00:02:45.200Z,9.73
2019-05-23T00:05:30.196Z,7.10
2019-05-23T00:08:00.333Z,10.27
2019-05-23T00:10:32.888Z,7.20
2019-05-23T00:13:02.002Z,15.07
2019-05-23T00:15:35.389Z,8.70
2019-05-23T00:18:04.999Z,8.40
2019-05-23T00:20:34.537Z,7.60
2019-05-23T00:23:03.472Z,7.63
2019-05-23T00:25:33.834Z,11.30
2019-05-23T00:28:03.818Z,10.80
2019-05-23T00:30:39.642Z,9.77
2019-05-23T00:33:09.793Z,11.50
2019-05-23T00:35:38.238Z,11.83
2019-05-23T00:38:07.701Z,8.17
2019-05-23T00:40:36.618Z,8.90
2019-05-23T00:43:05.826Z,10.43
2019-05-23T00:45:35.994Z,16.53
2019-05-23T00:48:04.819Z,11.57
2019-05-23T00:50:33.529Z,11.47
2019-05-23T00:53:02.403Z,12.80
2019-05-23T00:55:31.419Z,12.97
2019-05-23T00:58:00.527Z,14.57
2019-05-23T01:00:30.263Z,9.23
2019-05-23T01:02:59.362Z,10.00
2019-05-23T01:05:28.349Z,8.33
2019-05-23T01:07:57.977Z,10.37
2019-05-23T01:10:27.079Z,10.77
2019-05-23T01:12:55.656Z,10.80
2019-05-23T01:15:24.865Z,9.70
2019-05-23T01:17:53.872Z,11.43
2019-05-23T01:20:27.020Z,12.77
2019-05-23T01:22:56.937Z,13.23
2019-05-23T01:25:25.972Z,10.80
2019-05-23T01:27:54.450Z,9.63
2019-05-23T01:30:33.217Z,10.40
2019-05-23T01:33:02.298Z,10.87
2019-05-23T01:35:31.437Z,9.70
2019-05-23T01:38:04.070Z,12.27
2019-05-23T01:40:30.804Z,8.40
2019-05-23T01:43:00.134Z,11.17
2019-05-23T01:45:30.146Z,15.07
2019-05-23T01:47:59.147Z,10.63
2019-05-23T01:50:27.574Z,11.43
2019-05-23T01:52:57.004Z,11.70
2019-05-23T01:55:25.813Z,11.50
2019-05-23T01:57:54.321Z,10.37
2019-05-23T02:00:24.437Z,12.97
2019-05-23T02:02:52.960Z,13.43
2019-05-23T02:05:21.629Z,12.60
2019-05-23T02:07:50.069Z,11.20
2019-05-23T02:10:38.356Z,12.13
2019-05-23T02:13:07.401Z,14.63
2019-05-23T02:15:36.006Z,10.77
2019-05-23T02:18:04.607Z,11.50
2019-05-23T02:20:33.885Z,14.73
2019-05-23T02:23:03.017Z,11.70
2019-05-23T02:25:33.101Z,14.23
2019-05-23T02:28:02.377Z,12.53
2019-05-23T02:30:34.478Z,13.17
2019-05-23T02:33:02.770Z,10.63
2019-05-23T02:35:31.714Z,11.47
2019-05-23T02:38:04.343Z,10.80
2019-05-23T02:40:37.594Z,12.57
2019-05-23T02:43:07.202Z,13.03
2019-05-23T02:45:37.294Z,12.50
2019-05-23T02:48:07.425Z,13.83
2019-05-23T02:50:49.383Z,14.33
2019-05-23T02:53:17.877Z,10.80
2019-05-23T02:55:46.354Z,16.70
2019-05-23T02:58:24.249Z,10.97
2019-05-23T03:01:00.323Z,11.63
2019-05-23T03:03:30.581Z,11.47
2019-05-23T03:06:02.340Z,12.43
2019-05-23T03:08:32.054Z,13.50
2019-05-23T03:11:08.342Z,11.87
2019-05-23T03:13:38.164Z,14.57
2019-05-23T03:16:08.035Z,16.80
2019-05-23T03:18:40.208Z,14.50
2019-05-23T03:21:09.236Z,13.33
2019-05-23T03:23:37.725Z,14.10
2019-05-23T03:26:15.598Z,14.93
2019-05-23T03:28:44.154Z,12.93
2019-05-23T03:31:29.986Z,15.17
2019-05-23T03:33:50.349Z,19.10
2019-05-23T03:36:19.037Z,14.37
2019-05-23T03:38:47.606Z,15.23
2019-05-23T03:41:16.052Z,14.60
2019-05-23T03:43:46.097Z,17.67
2019-05-23T03:46:16.246Z,19.10
2019-05-23T03:48:44.888Z,15.50
2019-05-23T03:51:13.441Z,18.93
2019-05-23T03:53:42.622Z,14.23
2019-05-23T03:56:11.312Z,16.27
2019-05-23T03:58:41.173Z,15.53
2019-05-23T04:01:11.301Z,18.53
2019-05-23T04:03:40.670Z,16.80
2019-05-23T04:06:09.552Z,16.87
2019-05-23T04:08:38.182Z,18.67
2019-05-23T04:11:06.898Z,16.63
2019-05-23T04:13:36.205Z,14.60
2019-05-23T04:16:04.689Z,14.77
2019-05-23T04:18:33.696Z,17.77
2019-05-23T04:21:02.146Z,14.87
2019-05-23T04:23:30.639Z,12.13
2019-05-23T04:25:59.142Z,13.20
2019-05-23T04:28:27.664Z,17.63
2019-05-23T04:30:56.177Z,17.97
2019-05-23T04:33:25.139Z,11.40
2019-05-23T04:35:53.587Z,14.63
2019-05-23T04:38:22.034Z,15.87
2019-05-23T04:40:50.557Z,16.93
2019-05-23T04:43:19.000Z,17.80
2019-05-23T04:45:47.822Z,18.73
2019-05-23T04:48:17.000Z,18.30
2019-05-23T04:50:45.821Z,15.67
2019-05-23T04:53:14.711Z,17.83
2019-05-23T04:55:43.791Z,19.23
2019-05-23T04:58:12.897Z,18.67
2019-05-23T05:00:41.337Z,17.67
2019-05-23T05:03:09.933Z,23.93
2019-05-23T05:05:38.853Z,21.43
2019-05-23T05:08:07.616Z,22.93
2019-05-23T05:10:36.460Z,25.57
2019-05-23T05:13:05.822Z,24.80
2019-05-23T05:15:34.546Z,23.30
2019-05-23T05:18:03.313Z,28.27
2019-05-23T05:20:31.837Z,29.73
2019-05-23T05:23:00.305Z,27.03
2019-05-23T05:25:29.429Z,30.40
2019-05-23T05:27:58.253Z,29.77
2019-05-23T05:30:26.769Z,37.80
2019-05-23T05:32:56.867Z,31.77
2019-05-23T05:35:25.786Z,34.87
2019-05-23T05:37:54.282Z,36.30
2019-05-23T05:40:22.742Z,33.77
2019-05-23T05:42:51.674Z,33.30
2019-05-23T05:45:20.314Z,34.53
2019-05-23T05:47:48.765Z,33.63
2019-05-23T05:50:17.452Z,38.43
2019-05-23T05:52:45.961Z,40.27
2019-05-23T05:55:14.483Z,37.17
2019-05-23T05:57:42.981Z,36.93
2019-05-23T06:00:17.137Z,36.27
2019-05-23T06:03:02.906Z,37.30
2019-05-23T06:05:17.412Z,35.40
2019-05-23T06:07:45.860Z,37.50
2019-05-23T06:10:15.969Z,39.07
2019-05-23T06:12:44.457Z,29.97
2019-05-23T06:15:13.037Z,36.77
2019-05-23T06:17:41.953Z,38.97
2019-05-23T06:20:11.341Z,32.73
2019-05-23T06:22:40.876Z,37.07
2019-05-23T06:25:10.825Z,37.33
2019-05-23T06:27:40.416Z,37.37
2019-05-23T06:30:12.437Z,39.90
2019-05-23T06:32:41.621Z,33.10
2019-05-23T06:35:10.370Z,36.87
2019-05-23T06:37:39.993Z,32.70
2019-05-23T06:40:09.085Z,33.27
2019-05-23T06:45:05.145Z,29.00
2019-05-23T06:47:34.209Z,30.17
2019-05-23T06:50:02.701Z,29.60
2019-05-23T06:52:31.161Z,27.60
2019-05-23T06:54:59.995Z,31.93
2019-05-23T06:57:28.705Z,30.20
2019-05-23T06:59:57.153Z,24.57
2019-05-23T07:02:30.885Z,26.00
2019-05-23T07:04:57.096Z,28.47
2019-05-23T07:07:26.033Z,29.30
2019-05-23T07:09:54.945Z,26.47
2019-05-23T07:12:23.757Z,22.00
2019-05-23T07:14:52.336Z,24.80
2019-05-23T07:17:22.057Z,20.67
2019-05-23T07:19:50.505Z,20.23
2019-05-23T07:22:19.659Z,24.33
2019-05-23T07:24:58.289Z,25.00
2019-05-23T07:27:18.917Z,17.73
2019-05-23T07:29:47.882Z,18.07
2019-05-23T07:32:16.765Z,20.93
2019-05-23T07:34:45.253Z,19.20
2019-05-23T07:37:13.702Z,15.97
2019-05-23T07:39:42.746Z,17.17
2019-05-23T07:42:12.565Z,15.57
2019-05-23T07:44:48.462Z,13.43
2019-05-23T07:47:13.494Z,12.57
2019-05-23T07:49:41.955Z,10.40
2019-05-23T07:52:10.464Z,9.27
2019-05-23T07:54:46.666Z,8.97
2019-05-23T07:57:16.131Z,9.73
2019-05-23T07:59:44.932Z,10.50
2019-05-23T08:02:29.830Z,13.73
2019-05-23T08:04:58.317Z,13.80
2019-05-23T08:07:27.533Z,9.80
2019-05-23T08:09:56.032Z,8.03
2019-05-23T08:12:24.644Z,12.07
2019-05-23T08:14:53.091Z,7.13
2019-05-23T08:17:21.720Z,8.67
2019-05-23T08:19:50.658Z,8.97
2019-05-23T08:22:19.310Z,8.67
2019-05-23T08:24:51.108Z,6.07
2019-05-23T08:27:17.928Z,8.40
2019-05-23T08:29:46.416Z,7.60
2019-05-23T08:32:14.934Z,7.83
2019-05-23T08:34:43.637Z,9.23
2019-05-23T08:37:12.572Z,7.37
2019-05-23T08:39:41.858Z,8.33
2019-05-23T08:42:10.669Z,5.47
2019-05-23T08:44:39.210Z,7.67
2019-05-23T08:47:08.461Z,7.07
2019-05-23T08:49:36.988Z,6.77
2019-05-23T08:52:06.001Z,7.93
2019-05-23T08:54:35.497Z,6.50
2019-05-23T08:57:05.173Z,4.63
2019-05-23T08:59:33.725Z,6.17
2019-05-23T09:02:03.186Z,11.10
2019-05-23T09:04:31.633Z,7.97
2019-05-23T09:07:01.362Z,7.30
2019-05-23T09:09:30.635Z,7.70
2019-05-23T09:11:59.687Z,2.83
2019-05-23T09:14:28.448Z,4.20
2019-05-23T09:16:56.889Z,3.33
2019-05-23T09:19:25.377Z,4.57
2019-05-23T09:21:57.721Z,3.50
2019-05-23T09:24:24.085Z,4.33
2019-05-23T09:26:52.639Z,6.27
2019-05-23T09:29:21.271Z,5.50
2019-05-23T09:31:50.317Z,3.53
2019-05-23T09:34:18.830Z,6.07
2019-05-23T09:36:47.413Z,4.07
2019-05-23T09:39:17.902Z,3.70
2019-05-23T09:41:46.753Z,2.23
2019-05-23T09:44:15.320Z,4.43
2019-05-23T09:46:43.817Z,4.47
2019-05-23T09:49:12.240Z,6.33
2019-05-23T09:51:40.689Z,3.37
2019-05-23T09:54:09.204Z,4.07
2019-05-23T09:56:38.821Z,4.73
2019-05-23T09:59:07.330Z,1.80
2019-05-23T10:01:37.399Z,5.77
2019-05-23T10:04:06.003Z,4.50
2019-05-23T10:06:34.886Z,4.30
2019-05-23T10:09:04.990Z,1.97
2019-05-23T10:11:33.401Z,4.47
2019-05-23T10:14:02.456Z,2.73
2019-05-23T10:16:31.037Z,5.00
2019-05-23T10:19:01.127Z,2.27
2019-05-23T10:21:29.565Z,5.13
2019-05-23T10:23:58.073Z,4.87
2019-05-23T10:26:27.121Z,5.93
2019-05-23T10:28:55.562Z,7.10
2019-05-23T10:31:24.573Z,2.97
2019-05-23T10:33:53.061Z,5.10
2019-05-23T10:36:21.576Z,5.80
2019-05-23T10:38:50.004Z,4.27
2019-05-23T10:41:18.501Z,6.03
2019-05-23T10:43:46.996Z,4.80
2019-05-23T10:46:15.498Z,3.47
2019-05-23T10:48:44.022Z,8.17
2019-05-23T10:51:12.512Z,6.97
2019-05-23T10:53:40.949Z,7.07
2019-05-23T10:56:09.569Z,4.00
2019-05-23T10:58:39.004Z,5.20
2019-05-23T11:01:07.505Z,3.87
2019-05-23T11:03:36.522Z,5.63
2019-05-23T11:06:15.509Z,8.47
2019-05-23T11:08:37.137Z,4.93
2019-05-23T11:11:05.805Z,12.43
2019-05-23T11:13:35.017Z,7.33
2019-05-23T11:16:03.575Z,8.40
2019-05-23T11:18:32.023Z,10.10
2019-05-23T11:21:00.454Z,7.70
2019-05-23T11:23:30.647Z,7.00
2019-05-23T11:26:01.416Z,8.40
2019-05-23T11:28:30.988Z,6.63
2019-05-23T11:31:00.665Z,6.80
2019-05-23T11:33:32.623Z,5.50
2019-05-23T11:36:01.433Z,6.93
2019-05-23T11:38:30.737Z,8.63
2019-05-23T11:40:59.217Z,9.57
2019-05-23T11:43:27.727Z,6.53
2019-05-23T11:46:14.138Z,8.30
2019-05-23T11:48:42.659Z,8.10
2019-05-23T11:51:11.693Z,10.37
2019-05-23T11:53:40.233Z,7.50
2019-05-23T11:56:08.703Z,7.93
2019-05-23T11:58:37.444Z,9.53
2019-05-23T12:01:10.182Z,8.57
2019-05-23T12:03:39.164Z,6.40
2019-05-23T12:06:07.605Z,6.03
2019-05-23T12:08:36.313Z,6.43
2019-05-23T12:11:04.745Z,9.43
2019-05-23T12:13:33.187Z,8.67
2019-05-23T12:16:02.051Z,6.20
2019-05-23T12:18:30.619Z,8.00
2019-05-23T12:20:59.710Z,5.97
2019-05-23T12:23:28.570Z,8.63
2019-05-23T12:25:57.125Z,6.60
2019-05-23T12:28:26.033Z,5.70
2019-05-23T12:30:54.512Z,6.23
2019-05-23T12:33:22.968Z,5.70
2019-05-23T12:35:51.406Z,4.73
2019-05-23T12:38:19.961Z,4.20
2019-05-23T12:40:48.402Z,10.37
2019-05-23T12:43:16.977Z,6.87
2019-05-23T12:45:45.433Z,5.50
2019-05-23T12:48:27.846Z,6.37
2019-05-23T12:51:00.868Z,8.03
2019-05-23T12:53:29.303Z,8.50
2019-05-23T12:55:57.807Z,5.87
2019-05-23T12:58:27.812Z,7.73
2019-05-23T13:00:57.889Z,4.43
2019-05-23T13:03:26.680Z,5.90
2019-05-23T13:05:55.508Z,6.23
2019-05-23T13:08:24.091Z,4.73
2019-05-23T13:10:52.518Z,8.20
2019-05-23T13:13:21.048Z,7.43
2019-05-23T13:15:49.620Z,5.63
2019-05-23T13:18:18.056Z,7.10
2019-05-23T13:20:47.373Z,7.40
2019-05-23T13:23:20.854Z,9.50
2019-05-23T13:25:46.409Z,9.07
2019-05-23T13:28:14.865Z,5.47
2019-05-23T13:30:43.361Z,8.90
2019-05-23T13:33:11.866Z,5.93
2019-05-23T13:35:40.315Z,7.03
2019-05-23T13:38:08.869Z,7.43
2019-05-23T13:40:37.384Z,7.23
2019-05-23T13:43:08.102Z,5.43
2019-05-23T13:45:37.312Z,5.60
2019-05-23T13:48:05.758Z,7.57
2019-05-23T13:50:34.580Z,6.83
2019-05-23T13:53:04.202Z,5.83
2019-05-23T13:55:33.018Z,7.80
2019-05-23T13:58:01.459Z,10.40
2019-05-23T14:00:30.415Z,7.93
2019-05-23T14:02:58.928Z,8.57
2019-05-23T14:05:27.422Z,8.63
2019-05-23T14:08:10.381Z,7.50
2019-05-23T14:10:26.397Z,5.30
2019-05-23T14:12:54.962Z,11.73
2019-05-23T14:15:25.116Z,9.63
2019-05-23T14:17:53.691Z,7.47
2019-05-23T14:20:23.308Z,8.07
2019-05-23T14:22:53.382Z,10.03
2019-05-23T14:25:22.158Z,5.73
2019-05-23T14:27:58.338Z,7.90
2019-05-23T14:30:34.191Z,10.47
2019-05-23T14:33:10.327Z,7.60
2019-05-23T14:35:40.413Z,12.80
2019-05-23T14:38:27.669Z,10.73
2019-05-23T14:40:41.219Z,7.57
2019-05-23T14:43:28.704Z,11.00
2019-05-23T14:46:01.444Z,7.57
2019-05-23T14:48:37.521Z,6.97
2019-05-23T14:51:10.149Z,7.03
2019-05-23T14:53:40.244Z,8.80
2019-05-23T14:56:09.453Z,10.13
2019-05-23T14:58:37.987Z,6.37
2019-05-23T15:01:07.590Z,12.20
2019-05-23T15:03:36.493Z,4.57
2019-05-23T15:06:04.962Z,6.60
2019-05-23T15:08:49.764Z,9.10
2019-05-23T15:11:03.747Z,7.57
2019-05-23T15:13:32.197Z,8.47
2019-05-23T15:16:01.562Z,8.27
2019-05-23T15:18:30.055Z,7.10
2019-05-23T15:20:58.495Z,7.07
2019-05-23T15:23:26.945Z,8.27
2019-05-23T15:25:55.441Z,10.23
2019-05-23T15:28:23.890Z,9.37
2019-05-23T15:30:52.467Z,12.23
2019-05-23T15:33:20.938Z,7.43
2019-05-23T15:35:49.823Z,10.83
2019-05-23T15:38:18.415Z,9.73
2019-05-23T15:40:46.943Z,13.70
2019-05-23T15:43:15.382Z,13.70
2019-05-23T15:45:43.946Z,10.43
2019-05-23T15:48:12.410Z,9.83
2019-05-23T15:50:53.459Z,8.23
2019-05-23T15:53:32.380Z,8.47
2019-05-23T15:56:24.113Z,8.07
2019-05-23T15:58:52.457Z,8.10
2019-05-23T16:01:22.603Z,8.03
2019-05-23T16:03:52.752Z,7.07
2019-05-23T16:06:22.970Z,8.33
2019-05-23T16:08:51.577Z,9.53
2019-05-23T16:11:20.506Z,6.20
2019-05-23T16:13:48.994Z,8.20
2019-05-23T16:16:17.433Z,6.63
2019-05-23T16:18:46.563Z,5.00
2019-05-23T16:21:15.725Z,6.70
2019-05-23T16:23:44.167Z,6.43
2019-05-23T16:26:12.669Z,8.20
2019-05-23T16:28:41.111Z,5.13
2019-05-23T16:31:09.788Z,8.87
2019-05-23T16:33:38.206Z,5.00
2019-05-23T16:36:06.834Z,6.43
2019-05-23T16:38:35.349Z,5.27
2019-05-23T16:41:03.814Z,7.47
2019-05-23T16:43:32.302Z,5.23
2019-05-23T16:46:00.745Z,6.70
2019-05-23T16:48:30.066Z,5.43
2019-05-23T16:50:58.552Z,4.27
2019-05-23T16:53:28.362Z,4.33
2019-05-23T16:56:16.419Z,4.33
2019-05-23T16:59:03.607Z,4.83
2019-05-23T17:01:33.527Z,3.67
2019-05-23T17:04:03.614Z,4.87
2019-05-23T17:06:42.389Z,3.50
2019-05-23T17:09:31.565Z,4.90
2019-05-23T17:12:17.099Z,5.23
2019-05-23T17:14:52.965Z,8.40
2019-05-23T17:17:43.044Z,5.00
2019-05-23T17:19:57.490Z,4.10
2019-05-23T17:22:43.980Z,5.50
2019-05-23T17:25:34.555Z,8.23
2019-05-23T17:28:03.958Z,5.53
2019-05-23T17:30:36.928Z,8.67
2019-05-23T17:33:06.582Z,8.13
2019-05-23T17:35:36.170Z,6.10
2019-05-23T17:38:04.608Z,10.93
2019-05-23T17:40:33.165Z,5.67
2019-05-23T17:43:01.615Z,6.57
2019-05-23T17:45:30.525Z,6.60
2019-05-23T17:48:03.469Z,6.47
2019-05-23T17:50:34.703Z,5.47
2019-05-23T17:53:02.097Z,8.70
2019-05-23T17:55:31.157Z,6.30
2019-05-23T17:57:59.593Z,6.87
2019-05-23T18:00:29.693Z,7.33
2019-05-23T18:02:58.278Z,7.57
2019-05-23T18:05:27.053Z,5.23
2019-05-23T18:07:55.561Z,5.77
2019-05-23T18:10:42.872Z,8.23
2019-05-23T18:12:54.701Z,9.33
2019-05-23T18:15:23.521Z,6.10
2019-05-23T18:17:51.961Z,8.40
2019-05-23T18:20:21.330Z,6.43
2019-05-23T18:22:49.798Z,7.07
2019-05-23T18:25:18.516Z,5.93
2019-05-23T18:27:47.538Z,6.43
2019-05-23T18:30:20.740Z,8.87
2019-05-23T18:32:50.109Z,9.93
2019-05-23T18:35:20.032Z,8.23
2019-05-23T18:37:48.513Z,6.30
2019-05-23T18:40:17.626Z,7.63
2019-05-23T18:42:46.381Z,7.33
2019-05-23T18:45:16.670Z,6.73
2019-05-23T18:47:45.224Z,5.40
2019-05-23T18:50:15.070Z,5.43
2019-05-23T18:52:43.508Z,7.47
2019-05-23T18:55:12.176Z,5.97
2019-05-23T18:57:40.758Z,6.37
2019-05-23T19:00:10.194Z,5.27
2019-05-23T19:02:40.170Z,6.30
2019-05-23T19:05:09.602Z,4.77
2019-05-23T19:07:39.422Z,5.27
2019-05-23T19:10:09.232Z,8.23
2019-05-23T19:12:37.793Z,6.13
2019-05-23T19:15:09.330Z,4.60
2019-05-23T19:17:37.997Z,5.57
2019-05-23T19:20:09.377Z,5.43
2019-05-23T19:22:39.115Z,4.73
2019-05-23T19:25:09.870Z,6.20
2019-05-23T19:27:38.925Z,6.47
2019-05-23T19:30:08.581Z,7.00
2019-05-23T19:32:37.030Z,3.87
2019-05-23T19:35:05.745Z,7.40
2019-05-23T19:37:34.320Z,5.57
2019-05-23T19:40:02.801Z,6.60
2019-05-23T19:42:32.057Z,5.77
2019-05-23T19:45:00.621Z,4.20
2019-05-23T19:47:29.068Z,4.63
2019-05-23T19:49:57.657Z,4.87
2019-05-23T19:52:26.122Z,4.23
2019-05-23T19:54:54.673Z,7.87
2019-05-23T19:57:23.347Z,6.10
2019-05-23T19:59:53.848Z,4.80
2019-05-23T20:02:26.484Z,6.83
2019-05-23T20:05:05.513Z,7.87
2019-05-23T20:07:34.157Z,7.93
2019-05-23T20:10:03.279Z,6.07
2019-05-23T20:12:31.849Z,5.97
2019-05-23T20:15:00.341Z,6.17
2019-05-23T20:17:28.957Z,6.63
2019-05-23T20:19:57.439Z,6.77
2019-05-23T20:22:25.931Z,10.57
2019-05-23T20:24:54.572Z,5.80
2019-05-23T20:27:23.013Z,7.13
2019-05-23T20:29:55.297Z,3.80
2019-05-23T20:32:24.453Z,5.60
2019-05-23T20:34:53.017Z,5.47
2019-05-23T20:37:22.826Z,6.23
2019-05-23T20:39:51.342Z,6.43
2019-05-23T20:42:20.609Z,7.10
2019-05-23T20:44:49.165Z,6.10
2019-05-23T20:47:17.656Z,6.67
2019-05-23T20:49:46.186Z,11.10
2019-05-23T20:52:14.637Z,10.67
2019-05-23T20:54:43.125Z,9.67
2019-05-23T20:57:11.989Z,7.77
2019-05-23T20:59:40.522Z,7.73
2019-05-23T21:02:09.150Z,5.53
2019-05-23T21:04:37.591Z,4.30
2019-05-23T21:07:06.025Z,6.70
2019-05-23T21:09:34.587Z,6.77
2019-05-23T21:12:03.033Z,7.60
2019-05-23T21:14:31.469Z,10.17
2019-05-23T21:16:59.953Z,6.57
2019-05-23T21:19:28.534Z,5.90
2019-05-23T21:21:57.129Z,7.73
2019-05-23T21:24:25.641Z,7.50
2019-05-23T21:26:54.089Z,9.00
2019-05-23T21:29:22.540Z,11.10
2019-05-23T21:31:51.040Z,10.80
2019-05-23T21:34:22.037Z,9.20
2019-05-23T21:36:49.728Z,10.60
2019-05-23T21:39:18.548Z,8.87
2019-05-23T21:41:47.053Z,10.13
2019-05-23T21:44:15.489Z,8.53
2019-05-23T21:46:43.931Z,8.50
2019-05-23T21:49:12.430Z,10.00
2019-05-23T21:51:40.873Z,11.73
2019-05-23T21:54:09.317Z,9.87
2019-05-23T21:56:37.817Z,10.70
2019-05-23T21:59:06.256Z,9.80
2019-05-23T22:01:39.107Z,8.97
2019-05-23T22:04:15.338Z,8.10
2019-05-23T22:06:55.591Z,10.90
2019-05-23T22:09:24.456Z,10.77
2019-05-23T22:11:53.941Z,19.67
2019-05-23T22:14:22.525Z,11.17
2019-05-23T22:16:51.348Z,10.43
2019-05-23T22:19:21.430Z,10.80
2019-05-23T22:21:50.955Z,12.93
2019-05-23T22:24:20.071Z,11.10
2019-05-23T22:26:48.517Z,10.17
2019-05-23T22:29:17.456Z,10.27
2019-05-23T22:31:45.906Z,12.60
2019-05-23T22:34:22.014Z,12.17
2019-05-23T22:36:50.502Z,10.20
2019-05-23T22:39:19.417Z,10.47
2019-05-23T22:41:47.865Z,11.20
2019-05-23T22:44:16.721Z,9.97
2019-05-23T22:46:45.278Z,10.83
2019-05-23T22:49:13.961Z,8.67
2019-05-23T22:51:42.404Z,12.60
2019-05-23T22:54:10.897Z,9.47
2019-05-23T22:56:39.345Z,10.43
2019-05-23T22:59:07.861Z,9.23
2019-05-23T23:01:36.919Z,12.60
2019-05-23T23:04:05.434Z,12.53
2019-05-23T23:06:34.597Z,13.40
2019-05-23T23:09:03.230Z,13.47
2019-05-23T23:11:31.729Z,12.70
2019-05-23T23:14:00.173Z,13.73
2019-05-23T23:16:28.693Z,14.33
2019-05-23T23:18:57.201Z,14.30
2019-05-23T23:21:25.906Z,12.93
2019-05-23T23:23:54.378Z,16.60
2019-05-23T23:26:22.919Z,12.83
2019-05-23T23:28:51.550Z,12.53
2019-05-23T23:31:20.284Z,13.33
2019-05-23T23:33:48.728Z,13.60
2019-05-23T23:36:17.181Z,16.70
2019-05-23T23:38:45.683Z,14.47
2019-05-23T23:41:14.195Z,18.00
2019-05-23T23:43:57.927Z,14.53
2019-05-23T23:46:31.007Z,20.23
2019-05-23T23:49:17.561Z,17.20
2019-05-23T23:52:03.921Z,16.43
2019-05-23T23:54:50.189Z,20.67
2019-05-23T23:57:36.492Z,18.57
